Lawrence, Kansas
Current Conditions -  °F | °C
As of 4:52 PM on Saturday 25 Oct 2014 (Local Time) from KLWC Reporting Station
Clear Clear  
Wind Chill: 80°   Ceiling: Unl
Heat Index: 81°   Visibility: 10mi
Dew Point: 58°   Wind: 5mph
Humidity: 47%   Direction: 70°ENE
Pressure: 30.01"   Gusts: NA
Location:  38.97°N, 95.24°W
Report Text: KLWC 252152Z AUTO 07004KT 10SM CLR 27/14 A3001 RMK AO2 SLP157 T02670144
Loading
Personal Weather Stations






























Interactive Weather Map New forecast layout! Learn more

10-Day Weather Forecast

Advertisements
Track Severe Weather on mobile